Cloudcroft, New Mexico
Current Conditions -  °F | °C
As of 8:58 PM on Wednesday 22 Oct 2014 (Local Time) from KHMN Reporting Station
Clear Clear  
Wind Chill: 63°   Ceiling: Unl
Heat Index: 63°   Visibility: 10mi
Dew Point: 52°   Wind: 5mph
Humidity: 66%   Direction: 120°ESE
Pressure: 30.12"   Gusts: NA
Location:  32.96°N, 105.74°W
Report Text: KHMN 230258Z AUTO 12004KT 10SM CLR 17/11 A3012 RMK AO2 SLP153 T01740111 52013 $
Loading
Personal Weather Stations






























Interactive Weather Map
Tropical Storm Tracking
New forecast layout! Learn more

10-Day Weather Forecast

Advertisements
Track Severe Weather on mobile